sensor_id;sensor_type;location;lat;lon;timestamp;temperature;humidity
59309;DHT22;48433;53.016;-2.260;2023-02-24T00:01:36;5.40;99.90
59309;DHT22;48433;53.016;-2.260;2023-02-24T00:04:09;5.50;99.90
59309;DHT22;48433;53.016;-2.260;2023-02-24T00:06:39;5.50;99.90
59309;DHT22;48433;53.016;-2.260;2023-02-24T00:09:15;5.50;99.90
59309;DHT22;48433;53.016;-2.260;2023-02-24T00:11:46;5.50;99.90
59309;DHT22;48433;53.016;-2.260;2023-02-24T00:14:15;5.60;99.90
59309;DHT22;48433;53.016;-2.260;2023-02-24T00:16:43;5.60;99.90
59309;DHT22;48433;53.016;-2.260;2023-02-24T00:19:13;5.60;99.90
59309;DHT22;48433;53.016;-2.260;2023-02-24T00:21:43;5.60;99.90
59309;DHT22;48433;53.016;-2.260;2023-02-24T00:24:11;5.70;99.90
59309;DHT22;48433;53.016;-2.260;2023-02-24T00:26:40;5.70;99.90
59309;DHT22;48433;53.016;-2.260;2023-02-24T00:29:09;5.70;99.90
59309;DHT22;48433;53.016;-2.260;2023-02-24T00:31:38;5.70;99.90
59309;DHT22;48433;53.016;-2.260;2023-02-24T00:34:09;5.70;99.90
59309;DHT22;48433;53.016;-2.260;2023-02-24T00:36:39;5.80;99.90
59309;DHT22;48433;53.016;-2.260;2023-02-24T00:39:08;5.80;99.90
59309;DHT22;48433;53.016;-2.260;2023-02-24T00:41:42;5.90;99.90
59309;DHT22;48433;53.016;-2.260;2023-02-24T00:44:13;5.90;99.90
59309;DHT22;48433;53.016;-2.260;2023-02-24T00:46:44;5.90;99.90
59309;DHT22;48433;53.016;-2.260;2023-02-24T00:49:15;5.90;99.90
59309;DHT22;48433;53.016;-2.260;2023-02-24T00:51:46;6.00;99.90
59309;DHT22;48433;53.016;-2.260;2023-02-24T00:54:16;5.90;99.90
59309;DHT22;48433;53.016;-2.260;2023-02-24T00:56:46;6.00;99.90
59309;DHT22;48433;53.016;-2.260;2023-02-24T00:59:16;6.00;99.90
59309;DHT22;48433;53.016;-2.260;2023-02-24T01:01:45;6.00;99.90
59309;DHT22;48433;53.016;-2.260;2023-02-24T01:04:15;6.00;99.90
59309;DHT22;48433;53.016;-2.260;2023-02-24T01:06:46;6.00;99.90
59309;DHT22;48433;53.016;-2.260;2023-02-24T01:09:19;6.00;99.90
59309;DHT22;48433;53.016;-2.260;2023-02-24T01:11:48;6.00;99.90
59309;DHT22;48433;53.016;-2.260;2023-02-24T01:14:51;6.00;99.90
59309;DHT22;48433;53.016;-2.260;2023-02-24T01:17:20;6.00;99.90
59309;DHT22;48433;53.016;-2.260;2023-02-24T01:19:48;6.00;99.90
59309;DHT22;48433;53.016;-2.260;2023-02-24T01:22:18;6.10;99.90
59309;DHT22;48433;53.016;-2.260;2023-02-24T01:24:47;6.10;99.90
59309;DHT22;48433;53.016;-2.260;2023-02-24T01:27:16;6.10;99.90
59309;DHT22;48433;53.016;-2.260;2023-02-24T01:29:46;6.10;99.90
59309;DHT22;48433;53.016;-2.260;2023-02-24T01:32:17;6.10;99.90
59309;DHT22;48433;53.016;-2.260;2023-02-24T01:34:47;6.10;99.90
59309;DHT22;48433;53.016;-2.260;2023-02-24T01:37:17;6.10;99.90
59309;DHT22;48433;53.016;-2.260;2023-02-24T01:39:46;6.10;99.90
59309;DHT22;48433;53.016;-2.260;2023-02-24T01:42:17;6.10;99.90
59309;DHT22;48433;53.016;-2.260;2023-02-24T01:47:19;6.10;99.90
59309;DHT22;48433;53.016;-2.260;2023-02-24T01:49:51;6.10;99.90
59309;DHT22;48433;53.016;-2.260;2023-02-24T01:52:29;6.10;99.90
59309;DHT22;48433;53.016;-2.260;2023-02-24T01:55:06;6.10;99.90
59309;DHT22;48433;53.016;-2.260;2023-02-24T01:57:37;6.10;99.90
59309;DHT22;48433;53.016;-2.260;2023-02-24T02:00:11;6.10;99.90
59309;DHT22;48433;53.016;-2.260;2023-02-24T02:02:59;6.10;99.90
59309;DHT22;48433;53.016;-2.260;2023-02-24T02:05:28;6.10;99.90
59309;DHT22;48433;53.016;-2.260;2023-02-24T02:07:56;6.10;99.90
59309;DHT22;48433;53.016;-2.260;2023-02-24T02:10:24;6.10;99.90
59309;DHT22;48433;53.016;-2.260;2023-02-24T02:12:55;6.10;99.90
59309;DHT22;48433;53.016;-2.260;2023-02-24T02:15:22;6.10;99.90
59309;DHT22;48433;53.016;-2.260;2023-02-24T02:24:21;6.10;99.90
59309;DHT22;48433;53.016;-2.260;2023-02-24T02:26:36;6.10;99.90
59309;DHT22;48433;53.016;-2.260;2023-02-24T02:29:44;6.10;99.90
59309;DHT22;48433;53.016;-2.260;2023-02-24T02:34:53;6.10;99.90
59309;DHT22;48433;53.016;-2.260;2023-02-24T02:37:33;6.10;99.90
59309;DHT22;48433;53.016;-2.260;2023-02-24T02:40:17;6.10;99.90
59309;DHT22;48433;53.016;-2.260;2023-02-24T02:43:06;6.10;99.90
59309;DHT22;48433;53.016;-2.260;2023-02-24T02:46:10;6.10;99.90
59309;DHT22;48433;53.016;-2.260;2023-02-24T02:48:58;6.10;99.90
59309;DHT22;48433;53.016;-2.260;2023-02-24T02:51:32;6.10;99.90
59309;DHT22;48433;53.016;-2.260;2023-02-24T02:54:14;6.10;99.90
59309;DHT22;48433;53.016;-2.260;2023-02-24T02:57:11;6.10;99.90
59309;DHT22;48433;53.016;-2.260;2023-02-24T02:59:46;6.10;99.90
59309;DHT22;48433;53.016;-2.260;2023-02-24T03:02:18;6.10;99.90
59309;DHT22;48433;53.016;-2.260;2023-02-24T03:04:53;6.20;99.90
59309;DHT22;48433;53.016;-2.260;2023-02-24T03:07:23;6.20;99.90
59309;DHT22;48433;53.016;-2.260;2023-02-24T03:10:00;6.20;99.90
59309;DHT22;48433;53.016;-2.260;2023-02-24T03:12:33;6.20;99.90
59309;DHT22;48433;53.016;-2.260;2023-02-24T03:15:08;6.30;99.90
59309;DHT22;48433;53.016;-2.260;2023-02-24T03:17:40;6.30;99.90
59309;DHT22;48433;53.016;-2.260;2023-02-24T03:20:22;6.30;99.90
59309;DHT22;48433;53.016;-2.260;2023-02-24T03:23:00;6.30;99.90
59309;DHT22;48433;53.016;-2.260;2023-02-24T03:25:38;6.40;99.90
59309;DHT22;48433;53.016;-2.260;2023-02-24T03:28:17;6.40;99.90
59309;DHT22;48433;53.016;-2.260;2023-02-24T03:30:52;6.40;99.90
59309;DHT22;48433;53.016;-2.260;2023-02-24T03:33:33;6.50;99.90
59309;DHT22;48433;53.016;-2.260;2023-02-24T03:36:02;6.50;99.90
59309;DHT22;48433;53.016;-2.260;2023-02-24T03:38:32;6.50;99.90
59309;DHT22;48433;53.016;-2.260;2023-02-24T03:41:00;6.50;99.90
59309;DHT22;48433;53.016;-2.260;2023-02-24T03:43:33;6.50;99.90
59309;DHT22;48433;53.016;-2.260;2023-02-24T03:46:04;6.50;99.90
59309;DHT22;48433;53.016;-2.260;2023-02-24T03:48:32;6.50;99.90
59309;DHT22;48433;53.016;-2.260;2023-02-24T03:51:01;6.50;99.90
59309;DHT22;48433;53.016;-2.260;2023-02-24T03:55:00;6.60;99.90
59309;DHT22;48433;53.016;-2.260;2023-02-24T03:57:13;6.70;99.90
59309;DHT22;48433;53.016;-2.260;2023-02-24T03:59:56;6.70;99.90
59309;DHT22;48433;53.016;-2.260;2023-02-24T04:02:30;6.80;99.90
59309;DHT22;48433;53.016;-2.260;2023-02-24T04:05:13;6.80;99.90
59309;DHT22;48433;53.016;-2.260;2023-02-24T04:07:59;6.80;99.90
59309;DHT22;48433;53.016;-2.260;2023-02-24T04:10:49;6.90;99.90
59309;DHT22;48433;53.016;-2.260;2023-02-24T04:16:21;6.90;99.90
59309;DHT22;48433;53.016;-2.260;2023-02-24T04:19:03;6.90;99.90
59309;DHT22;48433;53.016;-2.260;2023-02-24T04:21:34;6.90;99.90
59309;DHT22;48433;53.016;-2.260;2023-02-24T04:24:06;6.90;99.90
59309;DHT22;48433;53.016;-2.260;2023-02-24T04:26:39;6.90;99.90
59309;DHT22;48433;53.016;-2.260;2023-02-24T04:29:08;6.90;99.90
59309;DHT22;48433;53.016;-2.260;2023-02-24T04:31:40;6.90;99.90
59309;DHT22;48433;53.016;-2.260;2023-02-24T04:34:08;6.90;99.90
59309;DHT22;48433;53.016;-2.260;2023-02-24T04:36:39;7.00;99.90
59309;DHT22;48433;53.016;-2.260;2023-02-24T04:41:53;7.00;99.90
59309;DHT22;48433;53.016;-2.260;2023-02-24T04:44:22;7.00;99.90
59309;DHT22;48433;53.016;-2.260;2023-02-24T04:46:50;7.00;99.90
59309;DHT22;48433;53.016;-2.260;2023-02-24T04:49:19;7.00;99.90
59309;DHT22;48433;53.016;-2.260;2023-02-24T04:51:47;7.10;99.90
59309;DHT22;48433;53.016;-2.260;2023-02-24T04:54:16;7.10;99.90
59309;DHT22;48433;53.016;-2.260;2023-02-24T04:56:45;7.10;99.90
59309;DHT22;48433;53.016;-2.260;2023-02-24T04:59:14;7.10;99.90
59309;DHT22;48433;53.016;-2.260;2023-02-24T05:01:42;7.10;99.90
59309;DHT22;48433;53.016;-2.260;2023-02-24T05:04:12;7.10;99.90
59309;DHT22;48433;53.016;-2.260;2023-02-24T05:06:40;7.10;99.90
59309;DHT22;48433;53.016;-2.260;2023-02-24T05:09:15;7.10;99.90
59309;DHT22;48433;53.016;-2.260;2023-02-24T05:11:49;7.10;99.90
59309;DHT22;48433;53.016;-2.260;2023-02-24T05:14:18;7.10;99.90
59309;DHT22;48433;53.016;-2.260;2023-02-24T05:16:48;7.10;99.90
59309;DHT22;48433;53.016;-2.260;2023-02-24T05:19:18;7.30;99.90
59309;DHT22;48433;53.016;-2.260;2023-02-24T05:22:04;7.20;99.90
59309;DHT22;48433;53.016;-2.260;2023-02-24T05:24:33;7.20;99.90
59309;DHT22;48433;53.016;-2.260;2023-02-24T05:27:01;7.20;99.90
59309;DHT22;48433;53.016;-2.260;2023-02-24T05:29:33;7.20;99.90
59309;DHT22;48433;53.016;-2.260;2023-02-24T05:32:02;7.20;99.90
59309;DHT22;48433;53.016;-2.260;2023-02-24T05:34:32;7.20;99.90
59309;DHT22;48433;53.016;-2.260;2023-02-24T05:37:01;7.20;99.90
59309;DHT22;48433;53.016;-2.260;2023-02-24T05:39:36;7.30;99.90
59309;DHT22;48433;53.016;-2.260;2023-02-24T05:42:04;7.30;99.90
59309;DHT22;48433;53.016;-2.260;2023-02-24T05:44:33;7.30;99.90
59309;DHT22;48433;53.016;-2.260;2023-02-24T05:47:02;7.30;99.90
59309;DHT22;48433;53.016;-2.260;2023-02-24T05:49:33;7.30;99.90
59309;DHT22;48433;53.016;-2.260;2023-02-24T05:52:04;7.30;99.90
59309;DHT22;48433;53.016;-2.260;2023-02-24T05:54:40;7.30;99.90
59309;DHT22;48433;53.016;-2.260;2023-02-24T05:57:13;7.40;99.90
59309;DHT22;48433;53.016;-2.260;2023-02-24T05:59:43;7.40;99.90
59309;DHT22;48433;53.016;-2.260;2023-02-24T06:02:13;7.40;99.90
59309;DHT22;48433;53.016;-2.260;2023-02-24T06:04:43;7.40;99.90
59309;DHT22;48433;53.016;-2.260;2023-02-24T06:07:25;7.40;99.90
59309;DHT22;48433;53.016;-2.260;2023-02-24T06:09:55;7.40;99.90
59309;DHT22;48433;53.016;-2.260;2023-02-24T06:12:28;7.40;99.90
59309;DHT22;48433;53.016;-2.260;2023-02-24T06:14:56;7.40;99.90
59309;DHT22;48433;53.016;-2.260;2023-02-24T06:17:27;7.40;99.90
59309;DHT22;48433;53.016;-2.260;2023-02-24T06:19:55;7.40;99.90
59309;DHT22;48433;53.016;-2.260;2023-02-24T06:22:24;7.40;99.90
59309;DHT22;48433;53.016;-2.260;2023-02-24T06:24:53;7.40;99.90
59309;DHT22;48433;53.016;-2.260;2023-02-24T06:27:21;7.40;99.90
59309;DHT22;48433;53.016;-2.260;2023-02-24T06:29:52;7.40;99.90
59309;DHT22;48433;53.016;-2.260;2023-02-24T06:32:24;7.40;99.90
59309;DHT22;48433;53.016;-2.260;2023-02-24T06:34:52;7.50;99.90
59309;DHT22;48433;53.016;-2.260;2023-02-24T06:37:20;7.40;99.90
59309;DHT22;48433;53.016;-2.260;2023-02-24T06:39:49;7.50;99.90
59309;DHT22;48433;53.016;-2.260;2023-02-24T06:42:17;7.50;99.90
59309;DHT22;48433;53.016;-2.260;2023-02-24T06:44:45;7.50;99.90
59309;DHT22;48433;53.016;-2.260;2023-02-24T06:47:13;7.50;99.90
59309;DHT22;48433;53.016;-2.260;2023-02-24T06:49:44;7.40;99.90
59309;DHT22;48433;53.016;-2.260;2023-02-24T06:52:11;7.50;99.90
59309;DHT22;48433;53.016;-2.260;2023-02-24T06:54:48;7.50;99.90
59309;DHT22;48433;53.016;-2.260;2023-02-24T06:57:16;7.50;99.90
59309;DHT22;48433;53.016;-2.260;2023-02-24T06:59:44;7.50;99.90
59309;DHT22;48433;53.016;-2.260;2023-02-24T07:02:12;7.50;99.90
59309;DHT22;48433;53.016;-2.260;2023-02-24T07:04:40;7.50;99.90
59309;DHT22;48433;53.016;-2.260;2023-02-24T07:07:11;7.50;99.90
59309;DHT22;48433;53.016;-2.260;2023-02-24T07:09:41;7.50;99.90
59309;DHT22;48433;53.016;-2.260;2023-02-24T07:12:09;7.50;99.90
59309;DHT22;48433;53.016;-2.260;2023-02-24T07:14:39;7.50;99.90
59309;DHT22;48433;53.016;-2.260;2023-02-24T07:17:07;7.50;99.90
59309;DHT22;48433;53.016;-2.260;2023-02-24T07:19:35;7.50;99.90
59309;DHT22;48433;53.016;-2.260;2023-02-24T07:22:03;7.50;99.90
59309;DHT22;48433;53.016;-2.260;2023-02-24T07:24:35;7.50;99.90
59309;DHT22;48433;53.016;-2.260;2023-02-24T07:27:14;7.50;99.90
59309;DHT22;48433;53.016;-2.260;2023-02-24T07:29:50;7.50;99.90
59309;DHT22;48433;53.016;-2.260;2023-02-24T07:32:20;7.60;99.90
59309;DHT22;48433;53.016;-2.260;2023-02-24T07:34:52;7.60;99.90
59309;DHT22;48433;53.016;-2.260;2023-02-24T07:37:19;7.60;99.90
59309;DHT22;48433;53.016;-2.260;2023-02-24T07:39:47;7.60;99.90
59309;DHT22;48433;53.016;-2.260;2023-02-24T07:42:15;7.60;99.90
59309;DHT22;48433;53.016;-2.260;2023-02-24T07:44:46;7.60;99.90
59309;DHT22;48433;53.016;-2.260;2023-02-24T07:47:18;7.60;99.90
59309;DHT22;48433;53.016;-2.260;2023-02-24T07:49:47;7.60;99.90
59309;DHT22;48433;53.016;-2.260;2023-02-24T07:52:17;7.70;99.90
59309;DHT22;48433;53.016;-2.260;2023-02-24T07:54:45;7.70;99.90
59309;DHT22;48433;53.016;-2.260;2023-02-24T07:57:15;7.70;99.90
59309;DHT22;48433;53.016;-2.260;2023-02-24T07:59:47;7.80;99.90
59309;DHT22;48433;53.016;-2.260;2023-02-24T08:02:15;7.70;99.90
59309;DHT22;48433;53.016;-2.260;2023-02-24T08:04:43;7.80;99.90
59309;DHT22;48433;53.016;-2.260;2023-02-24T08:07:18;7.80;99.90
59309;DHT22;48433;53.016;-2.260;2023-02-24T08:10:19;7.80;99.90
59309;DHT22;48433;53.016;-2.260;2023-02-24T08:12:54;7.90;99.90
59309;DHT22;48433;53.016;-2.260;2023-02-24T08:15:24;7.80;99.90
59309;DHT22;48433;53.016;-2.260;2023-02-24T08:17:55;7.90;99.90
59309;DHT22;48433;53.016;-2.260;2023-02-24T08:20:28;7.90;99.90
59309;DHT22;48433;53.016;-2.260;2023-02-24T08:23:18;7.90;99.90
59309;DHT22;48433;53.016;-2.260;2023-02-24T08:25:46;8.00;99.90
59309;DHT22;48433;53.016;-2.260;2023-02-24T08:28:14;8.00;99.90
59309;DHT22;48433;53.016;-2.260;2023-02-24T08:30:43;8.00;99.90
59309;DHT22;48433;53.016;-2.260;2023-02-24T08:33:19;8.00;99.90
59309;DHT22;48433;53.016;-2.260;2023-02-24T08:35:52;8.00;99.90
59309;DHT22;48433;53.016;-2.260;2023-02-24T08:38:34;8.00;99.90
59309;DHT22;48433;53.016;-2.260;2023-02-24T08:41:14;8.00;99.90
59309;DHT22;48433;53.016;-2.260;2023-02-24T08:43:50;8.00;99.90
59309;DHT22;48433;53.016;-2.260;2023-02-24T08:46:23;8.10;99.90
59309;DHT22;48433;53.016;-2.260;2023-02-24T08:48:59;8.20;99.90
59309;DHT22;48433;53.016;-2.260;2023-02-24T08:51:33;8.20;99.90
59309;DHT22;48433;53.016;-2.260;2023-02-24T08:54:07;8.20;99.90
59309;DHT22;48433;53.016;-2.260;2023-02-24T08:56:44;8.30;99.90
59309;DHT22;48433;53.016;-2.260;2023-02-24T08:59:17;8.30;99.90
59309;DHT22;48433;53.016;-2.260;2023-02-24T09:02:21;8.40;99.90
59309;DHT22;48433;53.016;-2.260;2023-02-24T09:04:58;8.40;99.90
59309;DHT22;48433;53.016;-2.260;2023-02-24T09:07:29;8.50;99.90
59309;DHT22;48433;53.016;-2.260;2023-02-24T09:10:04;8.50;99.90
59309;DHT22;48433;53.016;-2.260;2023-02-24T09:12:38;8.60;99.90
59309;DHT22;48433;53.016;-2.260;2023-02-24T09:15:10;8.60;99.90
59309;DHT22;48433;53.016;-2.260;2023-02-24T09:17:37;8.70;99.90
59309;DHT22;48433;53.016;-2.260;2023-02-24T09:20:14;8.70;99.90
59309;DHT22;48433;53.016;-2.260;2023-02-24T09:23:02;8.90;99.90
59309;DHT22;48433;53.016;-2.260;2023-02-24T09:25:34;8.90;99.90
59309;DHT22;48433;53.016;-2.260;2023-02-24T09:28:26;9.10;99.90
59309;DHT22;48433;53.016;-2.260;2023-02-24T09:31:01;9.20;99.90
59309;DHT22;48433;53.016;-2.260;2023-02-24T09:33:33;9.20;99.90
59309;DHT22;48433;53.016;-2.260;2023-02-24T09:36:14;9.30;99.90
59309;DHT22;48433;53.016;-2.260;2023-02-24T09:38:58;9.30;99.90
59309;DHT22;48433;53.016;-2.260;2023-02-24T09:44:12;9.50;99.90
59309;DHT22;48433;53.016;-2.260;2023-02-24T09:46:50;9.70;99.90
59309;DHT22;48433;53.016;-2.260;2023-02-24T09:49:34;9.80;99.90
59309;DHT22;48433;53.016;-2.260;2023-02-24T09:52:15;9.80;99.90
59309;DHT22;48433;53.016;-2.260;2023-02-24T09:54:48;9.80;99.90
59309;DHT22;48433;53.016;-2.260;2023-02-24T09:57:41;9.90;99.90
59309;DHT22;48433;53.016;-2.260;2023-02-24T10:00:34;9.90;99.90
59309;DHT22;48433;53.016;-2.260;2023-02-24T10:03:24;9.90;99.90
59309;DHT22;48433;53.016;-2.260;2023-02-24T10:06:18;9.90;99.90
59309;DHT22;48433;53.016;-2.260;2023-02-24T10:11:21;10.00;99.90
59309;DHT22;48433;53.016;-2.260;2023-02-24T10:14:02;10.00;99.90
59309;DHT22;48433;53.016;-2.260;2023-02-24T10:16:39;10.00;99.90
59309;DHT22;48433;53.016;-2.260;2023-02-24T10:19:26;10.10;99.90
59309;DHT22;48433;53.016;-2.260;2023-02-24T10:25:41;10.20;99.90
59309;DHT22;48433;53.016;-2.260;2023-02-24T10:28:37;10.60;99.90
59309;DHT22;48433;53.016;-2.260;2023-02-24T10:31:12;10.90;99.90
59309;DHT22;48433;53.016;-2.260;2023-02-24T10:34:07;11.00;99.90
59309;DHT22;48433;53.016;-2.260;2023-02-24T10:36:36;11.20;99.90
59309;DHT22;48433;53.016;-2.260;2023-02-24T10:39:15;11.00;99.90
59309;DHT22;48433;53.016;-2.260;2023-02-24T10:41:49;11.00;99.90
59309;DHT22;48433;53.016;-2.260;2023-02-24T10:45:02;10.90;99.90
59309;DHT22;48433;53.016;-2.260;2023-02-24T10:47:55;10.70;99.90
59309;DHT22;48433;53.016;-2.260;2023-02-24T10:50:32;10.80;99.90
59309;DHT22;48433;53.016;-2.260;2023-02-24T10:53:08;10.90;99.90
59309;DHT22;48433;53.016;-2.260;2023-02-24T10:55:54;11.10;99.90
59309;DHT22;48433;53.016;-2.260;2023-02-24T10:58:43;11.40;99.90
59309;DHT22;48433;53.016;-2.260;2023-02-24T11:01:42;11.60;99.90
59309;DHT22;48433;53.016;-2.260;2023-02-24T11:04:21;11.70;99.90
59309;DHT22;48433;53.016;-2.260;2023-02-24T11:07:15;11.90;99.90
59309;DHT22;48433;53.016;-2.260;2023-02-24T11:10:08;11.90;99.90
59309;DHT22;48433;53.016;-2.260;2023-02-24T11:12:46;12.00;99.90
59309;DHT22;48433;53.016;-2.260;2023-02-24T11:15:44;12.00;99.90
59309;DHT22;48433;53.016;-2.260;2023-02-24T11:18:32;12.00;99.90
59309;DHT22;48433;53.016;-2.260;2023-02-24T11:21:06;12.00;99.90
59309;DHT22;48433;53.016;-2.260;2023-02-24T11:23:39;11.80;99.90
59309;DHT22;48433;53.016;-2.260;2023-02-24T11:26:39;11.70;99.90
59309;DHT22;48433;53.016;-2.260;2023-02-24T11:38:08;12.10;99.90
59309;DHT22;48433;53.016;-2.260;2023-02-24T11:40:42;12.10;99.90
59309;DHT22;48433;53.016;-2.260;2023-02-24T11:43:16;12.10;99.90
59309;DHT22;48433;53.016;-2.260;2023-02-24T11:45:57;12.10;99.90
59309;DHT22;48433;53.016;-2.260;2023-02-24T11:48:30;11.90;99.90
59309;DHT22;48433;53.016;-2.260;2023-02-24T11:56:17;11.20;99.90
59309;DHT22;48433;53.016;-2.260;2023-02-24T11:58:57;10.90;99.90
59309;DHT22;48433;53.016;-2.260;2023-02-24T12:01:45;10.70;99.90
59309;DHT22;48433;53.016;-2.260;2023-02-24T12:04:34;10.70;99.90
59309;DHT22;48433;53.016;-2.260;2023-02-24T12:07:36;10.60;99.90
59309;DHT22;48433;53.016;-2.260;2023-02-24T12:15:22;10.50;99.90
59309;DHT22;48433;53.016;-2.260;2023-02-24T12:18:01;10.40;99.90
59309;DHT22;48433;53.016;-2.260;2023-02-24T12:46:43;12.30;99.90
59309;DHT22;48433;53.016;-2.260;2023-02-24T12:54:23;12.30;99.90
59309;DHT22;48433;53.016;-2.260;2023-02-24T12:57:18;12.00;99.90
59309;DHT22;48433;53.016;-2.260;2023-02-24T12:59:49;12.00;99.90
59309;DHT22;48433;53.016;-2.260;2023-02-24T13:11:06;11.20;99.90
59309;DHT22;48433;53.016;-2.260;2023-02-24T13:13:47;10.80;99.90
59309;DHT22;48433;53.016;-2.260;2023-02-24T13:16:27;10.50;99.90
59309;DHT22;48433;53.016;-2.260;2023-02-24T13:19:20;10.20;99.90
59309;DHT22;48433;53.016;-2.260;2023-02-24T13:25:00;10.10;99.90
59309;DHT22;48433;53.016;-2.260;2023-02-24T13:27:37;10.10;99.90
59309;DHT22;48433;53.016;-2.260;2023-02-24T13:30:24;10.20;99.90
59309;DHT22;48433;53.016;-2.260;2023-02-24T13:35:47;10.20;99.90
59309;DHT22;48433;53.016;-2.260;2023-02-24T13:47:05;10.20;99.90
59309;DHT22;48433;53.016;-2.260;2023-02-24T13:55:01;10.50;99.90
59309;DHT22;48433;53.016;-2.260;2023-02-24T14:03:10;10.80;99.90
59309;DHT22;48433;53.016;-2.260;2023-02-24T14:05:40;10.90;99.90
59309;DHT22;48433;53.016;-2.260;2023-02-24T14:08:19;11.00;99.90
59309;DHT22;48433;53.016;-2.260;2023-02-24T14:10:53;11.40;99.90
59309;DHT22;48433;53.016;-2.260;2023-02-24T14:13:26;11.40;99.90
59309;DHT22;48433;53.016;-2.260;2023-02-24T14:15:57;11.50;99.90
59309;DHT22;48433;53.016;-2.260;2023-02-24T14:18:28;11.60;99.90
59309;DHT22;48433;53.016;-2.260;2023-02-24T14:20:57;11.60;99.90
59309;DHT22;48433;53.016;-2.260;2023-02-24T14:23:30;11.60;99.90
59309;DHT22;48433;53.016;-2.260;2023-02-24T14:26:11;11.50;99.90
59309;DHT22;48433;53.016;-2.260;2023-02-24T14:28:40;11.40;99.90
59309;DHT22;48433;53.016;-2.260;2023-02-24T14:31:11;11.60;99.90
59309;DHT22;48433;53.016;-2.260;2023-02-24T14:33:41;11.80;99.90
59309;DHT22;48433;53.016;-2.260;2023-02-24T14:36:19;12.30;99.90
59309;DHT22;48433;53.016;-2.260;2023-02-24T14:39:24;12.40;99.90
59309;DHT22;48433;53.016;-2.260;2023-02-24T14:42:12;12.60;99.90
59309;DHT22;48433;53.016;-2.260;2023-02-24T14:44:51;13.00;99.90
59309;DHT22;48433;53.016;-2.260;2023-02-24T14:47:21;13.00;99.90
59309;DHT22;48433;53.016;-2.260;2023-02-24T14:49:57;13.00;99.90
59309;DHT22;48433;53.016;-2.260;2023-02-24T14:52:31;12.70;99.90
59309;DHT22;48433;53.016;-2.260;2023-02-24T14:55:21;12.70;99.90
59309;DHT22;48433;53.016;-2.260;2023-02-24T15:00:35;12.60;99.90
59309;DHT22;48433;53.016;-2.260;2023-02-24T15:03:56;12.50;99.90
59309;DHT22;48433;53.016;-2.260;2023-02-24T15:06:03;12.40;99.90
59309;DHT22;48433;53.016;-2.260;2023-02-24T15:08:41;12.50;99.90
59309;DHT22;48433;53.016;-2.260;2023-02-24T15:16:19;13.50;99.90
59309;DHT22;48433;53.016;-2.260;2023-02-24T15:18:54;15.20;99.90
59309;DHT22;48433;53.016;-2.260;2023-02-24T15:21:33;16.10;99.90
59309;DHT22;48433;53.016;-2.260;2023-02-24T15:24:18;16.90;99.90
59309;DHT22;48433;53.016;-2.260;2023-02-24T15:29:57;15.60;99.90
59309;DHT22;48433;53.016;-2.260;2023-02-24T15:32:29;15.50;99.90
59309;DHT22;48433;53.016;-2.260;2023-02-24T15:35:21;14.00;99.90
59309;DHT22;48433;53.016;-2.260;2023-02-24T15:37:52;13.50;99.90
59309;DHT22;48433;53.016;-2.260;2023-02-24T15:40:25;13.30;99.90
59309;DHT22;48433;53.016;-2.260;2023-02-24T15:42:58;12.90;99.90
59309;DHT22;48433;53.016;-2.260;2023-02-24T15:45:32;12.60;99.90
59309;DHT22;48433;53.016;-2.260;2023-02-24T15:48:03;12.30;99.90
59309;DHT22;48433;53.016;-2.260;2023-02-24T15:50:31;12.20;99.90
59309;DHT22;48433;53.016;-2.260;2023-02-24T15:53:10;12.10;99.90
59309;DHT22;48433;53.016;-2.260;2023-02-24T15:55:42;11.80;99.90
59309;DHT22;48433;53.016;-2.260;2023-02-24T15:58:14;11.60;99.90
59309;DHT22;48433;53.016;-2.260;2023-02-24T16:00:43;11.50;99.90
59309;DHT22;48433;53.016;-2.260;2023-02-24T16:03:14;11.40;99.90
59309;DHT22;48433;53.016;-2.260;2023-02-24T16:05:50;11.30;99.90
59309;DHT22;48433;53.016;-2.260;2023-02-24T16:08:23;11.30;99.90
59309;DHT22;48433;53.016;-2.260;2023-02-24T16:10:51;11.30;99.90
59309;DHT22;48433;53.016;-2.260;2023-02-24T16:13:22;11.20;99.90
59309;DHT22;48433;53.016;-2.260;2023-02-24T16:15:52;11.20;99.90
59309;DHT22;48433;53.016;-2.260;2023-02-24T16:18:22;11.10;99.90
59309;DHT22;48433;53.016;-2.260;2023-02-24T16:21:00;11.10;99.90
59309;DHT22;48433;53.016;-2.260;2023-02-24T16:23:29;11.00;99.90
59309;DHT22;48433;53.016;-2.260;2023-02-24T16:25:58;10.90;99.90
59309;DHT22;48433;53.016;-2.260;2023-02-24T16:28:31;10.80;99.90
59309;DHT22;48433;53.016;-2.260;2023-02-24T16:30:59;10.90;99.90
59309;DHT22;48433;53.016;-2.260;2023-02-24T16:33:28;10.90;99.90
59309;DHT22;48433;53.016;-2.260;2023-02-24T16:36:02;12.00;99.90
59309;DHT22;48433;53.016;-2.260;2023-02-24T16:38:43;12.10;99.90
59309;DHT22;48433;53.016;-2.260;2023-02-24T16:41:17;12.40;99.90
59309;DHT22;48433;53.016;-2.260;2023-02-24T16:43:45;12.40;99.90
59309;DHT22;48433;53.016;-2.260;2023-02-24T16:46:19;12.50;99.90
59309;DHT22;48433;53.016;-2.260;2023-02-24T16:48:52;12.60;99.90
59309;DHT22;48433;53.016;-2.260;2023-02-24T16:51:22;12.70;99.90
59309;DHT22;48433;53.016;-2.260;2023-02-24T16:53:50;12.90;99.90
59309;DHT22;48433;53.016;-2.260;2023-02-24T16:56:20;12.90;99.90
59309;DHT22;48433;53.016;-2.260;2023-02-24T16:58:49;12.80;99.90
59309;DHT22;48433;53.016;-2.260;2023-02-24T17:01:20;12.40;99.90
59309;DHT22;48433;53.016;-2.260;2023-02-24T17:03:52;12.30;99.90
59309;DHT22;48433;53.016;-2.260;2023-02-24T17:06:28;11.90;99.90
59309;DHT22;48433;53.016;-2.260;2023-02-24T17:08:59;11.20;99.90
59309;DHT22;48433;53.016;-2.260;2023-02-24T17:11:27;10.80;99.90
59309;DHT22;48433;53.016;-2.260;2023-02-24T17:14:05;10.30;99.90
59309;DHT22;48433;53.016;-2.260;2023-02-24T17:16:56;9.90;99.90
59309;DHT22;48433;53.016;-2.260;2023-02-24T17:19:32;9.40;99.90
59309;DHT22;48433;53.016;-2.260;2023-02-24T17:22:00;9.20;99.90
59309;DHT22;48433;53.016;-2.260;2023-02-24T17:24:27;8.90;99.90
59309;DHT22;48433;53.016;-2.260;2023-02-24T17:26:56;8.50;99.90
59309;DHT22;48433;53.016;-2.260;2023-02-24T17:29:26;8.20;99.90
59309;DHT22;48433;53.016;-2.260;2023-02-24T17:31:54;8.10;99.90
59309;DHT22;48433;53.016;-2.260;2023-02-24T17:34:22;7.90;99.90
59309;DHT22;48433;53.016;-2.260;2023-02-24T17:36:50;7.90;99.90
59309;DHT22;48433;53.016;-2.260;2023-02-24T17:39:18;7.80;99.90
59309;DHT22;48433;53.016;-2.260;2023-02-24T17:41:46;7.70;99.90
59309;DHT22;48433;53.016;-2.260;2023-02-24T17:44:13;7.60;99.90
59309;DHT22;48433;53.016;-2.260;2023-02-24T17:46:41;7.50;99.90
59309;DHT22;48433;53.016;-2.260;2023-02-24T17:49:09;7.40;99.90
59309;DHT22;48433;53.016;-2.260;2023-02-24T17:51:37;7.40;99.90
59309;DHT22;48433;53.016;-2.260;2023-02-24T17:54:05;7.30;99.90
59309;DHT22;48433;53.016;-2.260;2023-02-24T17:56:33;7.20;99.90
59309;DHT22;48433;53.016;-2.260;2023-02-24T17:59:00;7.20;99.90
59309;DHT22;48433;53.016;-2.260;2023-02-24T18:01:28;7.10;99.90
59309;DHT22;48433;53.016;-2.260;2023-02-24T18:03:56;7.10;99.90
59309;DHT22;48433;53.016;-2.260;2023-02-24T18:08:53;7.00;99.90
59309;DHT22;48433;53.016;-2.260;2023-02-24T18:11:21;6.90;99.90
59309;DHT22;48433;53.016;-2.260;2023-02-24T18:13:49;6.90;99.90
59309;DHT22;48433;53.016;-2.260;2023-02-24T18:16:19;6.90;99.90